Data for 02/14/2016

Time Sea-Level Adjusted Pressure Absolute Pressure Temperature Relative Humidity Dew Point   
(mb) (inHg) (mb) (inHg) (C) (F) (%) (C) (F)
00:05 1018 30.06 847 25.01 0.8 33.5 49 -8.8 16.1
00:10 1018 30.06 847 25.01 1.2 34.2 54 -7 19.3
00:15 1018 30.06 847 25.01 0.9 33.6 51 -8.3 17.1
00:20 1018 30.06 847 25.01 0.9 33.6 49 -8.8 16.2
00:25 1018 30.06 847 25.01 1.2 34.2 50 -8.2 17.3
00:30 1018 30.06 847 25.01 1.5 34.6 46 -9 15.8
00:35 1017 30.03 847 25.01 1.7 35 47 -8.4 16.8
00:40 1017 30.03 847 25.01 1.7 35.1 49 -7.8 17.9
00:45 1017 30.03 847 25.01 1.6 34.9 53 -7 19.4
00:50 1017 30.03 847 25.01 1.5 34.6 56 -6.4 20.5
00:55 1017 30.03 847 25.01 1.3 34.3 52 -7.4 18.6
01:00 1017 30.03 846 24.98 1.2 34.2 52 -7.6 18.4
01:05 1017 30.03 846 24.98 1 33.8 55 -6.9 19.5
01:10 1017 30.03 846 24.98 1 33.7 57 -6.5 20.3
01:15 1017 30.03 846 24.98 0.9 33.6 57 -6.6 20.1
01:20 1017 30.03 846 24.98 0.6 33.1 58 -6.6 20.1
01:25 1017 30.03 846 24.98 0.6 33 58 -6.8 19.8
01:30 1017 30.03 846 24.98 0.8 33.4 56 -7 19.4
01:35 1017 30.03 846 24.98 1 33.8 55 -7 19.4
01:40 1017 30.03 846 24.98 1 33.8 55 -7.1 19.3
01:45 1017 30.03 846 24.98 1 33.9 56 -6.7 19.9
01:50 1017 30.03 846 24.98 1.1 33.9 55 -7 19.4
01:55 1017 30.03 846 24.98 1.2 34.1 58 -6.2 20.8
02:00 1017 30.03 846 24.98 0.8 33.4 55 -7.3 18.9
02:05 1017 30.03 846 24.98 0.8 33.5 58 -6.5 20.3
02:10 1017 30.03 846 24.98 0.9 33.6 59 -6.3 20.7
02:15 1017 30.03 846 24.98 0.9 33.6 60 -6.1 21
02:20 1017 30.03 846 24.98 1.1 34.1 57 -6.5 20.3
02:25 1017 30.03 846 24.98 1.2 34.2 65 -4.7 23.6
02:30 1017 30.03 846 24.98 1.2 34.2 65 -4.7 23.6
02:35 1017 30.03 846 24.98 1 33.9 65 -4.9 23.3
02:40 1016 30 846 24.98 0.9 33.6 67 -4.5 23.9
02:45 1016 30 846 24.98 0.9 33.6 68 -4.4 24.2
02:50 1016 30 845 24.95 0.9 33.5 69 -4.3 24.3
02:55 1016 30 845 24.95 0.9 33.6 69 -4.2 24.5
03:00 1016 30 846 24.98 1 33.7 69 -4.1 24.7
03:05 1017 30.03 846 24.98 1 33.8 69 -4.1 24.7
03:10 1017 30.03 846 24.98 1.1 33.9 69 -4.1 24.7
03:15 1017 30.03 846 24.98 1.1 34 68 -4 24.7
03:20 1017 30.03 846 24.98 1.1 34.1 68 -4.1 24.6
03:25 1017 30.03 846 24.98 1.2 34.1 69 -4 24.9
03:30 1016 30 846 24.98 1.3 34.3 67 -4.1 24.6
03:35 1016 30 845 24.95 1.4 34.5 67 -4 24.8
03:40 1016 30 845 24.95 1.5 34.8 66 -4.1 24.6
03:45 1016 30 845 24.95 1.7 35.1 65 -4.1 24.6
03:50 1016 30 845 24.95 2.1 35.7 61 -4.6 23.6
03:55 1016 30 845 24.95 2.5 36.5 62 -4 24.8
04:00 1016 30 845 24.95 1.9 35.4 65 -3.9 25
04:05 1016 30 845 24.95 1.2 34.1 69 -4 24.8
04:10 1016 30 845 24.95 0.7 33.3 69 -4.2 24.4
04:15 1016 30 845 24.95 0.7 33.2 69 -4.3 24.2
04:20 1016 30 845 24.95 0.7 33.3 68 -4.5 23.8
04:25 1016 30 845 24.95 0.9 33.6 68 -4.4 24.1
04:30 1016 30 845 24.95 1.2 34.1 65 -4.6 23.7
04:35 1016 30 845 24.95 1.4 34.5 65 -4.5 24
04:40 1016 30 845 24.95 1.6 34.8 63 -4.8 23.4
04:45 1015 29.97 845 24.95 2.2 36 61 -4.6 23.8
04:50 1015 29.97 844 24.92 2.6 36.7 59 -4.6 23.7
04:55 1015 29.97 844 24.92 2.8 37 56 -5.2 22.6
05:00 1015 29.97 844 24.92 3 37.4 55 -5.1 22.8
05:05 1015 29.97 844 24.92 2.9 37.3 56 -5 23
05:10 1015 29.97 844 24.92 2.9 37.2 56 -5.1 22.8
05:15 1015 29.97 844 24.92 2.8 37 57 -4.9 23.2
05:20 1015 29.97 844 24.92 2.6 36.7 57 -5 23.1
05:25 1015 29.97 844 24.92 2.7 36.9 56 -5.2 22.7
05:30 1014 29.94 844 24.92 3.2 37.7 54 -5.3 22.5
05:35 1014 29.94 844 24.92 3.3 38 53 -5.4 22.2
05:40 1014 29.94 844 24.92 3.4 38.1 52 -5.4 22.2
05:45 1014 29.94 844 24.92 3.3 38 53 -5.3 22.5
05:50 1014 29.94 843 24.89 3.2 37.8 53 -5.3 22.4
05:55 1014 29.94 844 24.92 3.1 37.6 53 -5.4 22.2
06:00 1014 29.94 844 24.92 3.1 37.6 54 -5.4 22.3
06:05 1014 29.94 844 24.92 3.1 37.6 55 -5.1 22.8
06:10 1014 29.94 844 24.92 3.1 37.5 55 -5.2 22.6
06:15 1015 29.97 844 24.92 3.2 37.7 55 -5.1 22.8
06:20 1015 29.97 844 24.92 3.1 37.5 55 -5 23
06:25 1015 29.97 844 24.92 3.1 37.5 55 -5.2 22.7
06:30 1015 29.97 844 24.92 2.9 37.3 56 -5 23
06:35 1015 29.97 844 24.92 2.8 37 55 -5.3 22.4
06:40 1015 29.97 844 24.92 2.8 37 55 -5.4 22.2
06:45 1015 29.97 844 24.92 2.9 37.3 54 -5.6 22
06:50 1015 29.97 844 24.92 3 37.5 54 -5.5 22.1
06:55 1015 29.97 844 24.92 3 37.4 54 -5.3 22.5
07:00 1015 29.97 844 24.92 3 37.4 54 -5.4 22.4
07:05 1015 29.97 844 24.92 3 37.4 55 -5.2 22.6
07:10 1015 29.97 844 24.92 3 37.4 55 -5.2 22.7
07:15 1015 29.97 844 24.92 3 37.4 55 -5.2 22.7
07:20 1015 29.97 844 24.92 3 37.4 53 -5.6 21.9
07:25 1015 29.97 844 24.92 3.2 37.8 52 -5.6 21.9
07:30 1015 29.97 844 24.92 3.3 37.9 53 -5.3 22.4
07:35 1015 29.97 844 24.92 3.3 37.9 53 -5.5 22.1
07:40 1015 29.97 844 24.92 3.3 37.9 52 -5.6 22
07:45 1015 29.97 844 24.92 3.3 37.9 53 -5.4 22.3
07:50 1015 29.97 844 24.92 3.3 37.9 53 -5.3 22.5
07:55 1015 29.97 844 24.92 3.3 37.9 53 -5.3 22.5
08:00 1015 29.97 844 24.92 3.3 37.9 53 -5.5 22.1
08:05 1015 29.97 844 24.92 3.4 38.1 52 -5.4 22.2
08:10 1015 29.97 844 24.92 3.3 37.9 55 -4.8 23.4
08:15 1015 29.97 844 24.92 3.1 37.6 54 -5.2 22.6
08:20 1015 29.97 844 24.92 3.1 37.6 56 -4.9 23.2
08:25 1015 29.97 844 24.92 3 37.4 55 -5.2 22.6
08:30 1015 29.97 844 24.92 3.2 37.8 54 -5.1 22.8
08:35 1015 29.97 844 24.92 3 37.5 55 -5 22.9
08:40 1015 29.97 844 24.92 2.9 37.3 55 -5.1 22.8
08:45 1015 29.97 844 24.92 2.9 37.3 53 -5.7 21.7
08:50 1015 29.97 844 24.92 3.4 38.1 53 -5.4 22.3
08:55 1015 29.97 844 24.92 3.3 37.9 55 -4.9 23.2
09:00 1015 29.97 844 24.92 3.2 37.8 55 -5 23
09:05 1015 29.97 844 24.92 3.3 38 55 -4.8 23.4
09:10 1015 29.97 844 24.92 3.1 37.6 56 -4.9 23.2
09:15 1015 29.97 844 24.92 3.1 37.6 55 -5 23
09:20 1015 29.97 844 24.92 3.3 38 54 -5.1 22.9
09:25 1015 29.97 844 24.92 3.5 38.3 54 -4.8 23.3
09:30 1015 29.97 845 24.95 3.5 38.3 55 -4.7 23.5
09:35 1015 29.97 845 24.95 3.5 38.2 55 -4.8 23.3
09:40 1015 29.97 845 24.95 3.5 38.2 56 -4.5 23.9
09:45 1015 29.97 845 24.95 3.3 38 56 -4.6 23.7
09:50 1016 30 845 24.95 3.4 38.1 55 -4.8 23.4
09:55 1016 30 845 24.95 3.4 38.1 56 -4.5 23.9
10:00 1015 29.97 845 24.95 3.3 37.9 56 -4.7 23.6
10:05 1015 29.97 844 24.92 3.3 38 55 -4.7 23.5
10:10 1015 29.97 844 24.92 3.4 38.1 55 -4.7 23.5
10:15 1015 29.97 844 24.92 3.4 38.2 56 -4.4 24
10:20 1015 29.97 844 24.92 3.4 38.1 55 -4.7 23.6
10:25 1015 29.97 844 24.92 3.5 38.3 53 -5.3 22.5
10:30 1015 29.97 844 24.92 3.7 38.7 54 -4.8 23.4
10:35 1015 29.97 845 24.95 3.7 38.7 54 -4.6 23.6
10:40 1015 29.97 845 24.95 3.8 38.8 52 -5.2 22.7
10:45 1015 29.97 845 24.95 4 39.1 50 -5.5 22.1
10:50 1015 29.97 845 24.95 4.2 39.6 51 -5.1 22.8
10:55 1016 30 845 24.95 4.2 39.6 52 -4.7 23.5
11:00 1016 30 845 24.95 4.2 39.5 52 -4.7 23.5
11:05 1016 30 845 24.95 4.2 39.6 53 -4.6 23.8
11:10 1016 30 845 24.95 4.3 39.8 51 -4.8 23.3
11:15 1016 30 845 24.95 4.4 39.9 53 -4.4 24.1
11:20 1016 30 845 24.95 4.4 39.9 52 -4.5 24
11:25 1016 30 845 24.95 4.5 40.2 51 -4.7 23.6
11:30 1016 30 845 24.95 4.6 40.2 51 -4.6 23.7
11:35 1016 30 845 24.95 4.6 40.4 52 -4.5 24
11:40 1016 30 845 24.95 4.7 40.5 52 -4.4 24.1
11:45 1016 30 845 24.95 5 41 50 -4.6 23.6
11:50 1016 30 845 24.95 5.1 41.2 50 -4.6 23.8
11:55 1016 30 845 24.95 5.2 41.4 49 -4.7 23.5
12:00 1016 30 845 24.95 5.5 41.8 48 -4.6 23.7
12:05 1016 30 845 24.95 5.7 42.2 49 -4.2 24.4
12:10 1016 30 845 24.95 5.2 41.4 52 -3.8 25.2
12:15 1016 30 845 24.95 4.6 40.3 53 -4.2 24.5
12:20 1016 30 845 24.95 5 40.9 51 -4.4 24
12:25 1016 30 845 24.95 5.3 41.6 50 -4.4 24.2
12:30 1016 30 845 24.95 5.6 42.2 48 -4.5 23.8
12:35 1016 30 845 24.95 6 42.8 44 -5.5 22.1
12:40 1016 30 845 24.95 6.1 43 45 -5.1 22.9
12:45 1016 30 845 24.95 5.9 42.6 44 -5.3 22.4
12:50 1016 30 845 24.95 6.1 43 44 -5.3 22.5
12:55 1016 30 845 24.95 6.1 43 43 -5.6 22
13:00 1016 30 845 24.95 6.2 43.2 41 -6.2 20.8
13:05 1016 30 845 24.95 6.4 43.5 41 -6 21.1
13:10 1016 30 845 24.95 6.4 43.5 39 -6.6 20.2
13:15 1016 30 845 24.95 6.9 44.4 39 -6.1 21.1
13:20 1016 30 845 24.95 6.7 44.1 39 -6.3 20.7
13:25 1016 30 846 24.98 6.6 43.9 39 -6.3 20.6
13:30 1016 30 845 24.95 6.5 43.8 39 -6.3 20.7
13:35 1016 30 845 24.95 6.7 44.1 39 -6.3 20.7
13:40 1016 30 845 24.95 7.2 44.9 38 -6.1 20.9
13:45 1016 30 845 24.95 6.8 44.3 39 -6.1 21
13:50 1016 30 845 24.95 6.7 44.1 39 -6.2 20.9
13:55 1016 30 845 24.95 6.8 44.2 39 -6.2 20.9
14:00 1016 30 845 24.95 6.8 44.2 38 -6.5 20.3
14:05 1016 30 845 24.95 6.9 44.5 37 -6.7 19.9
14:10 1016 30 845 24.95 7.1 44.8 36 -7.1 19.3
14:15 1016 30 845 24.95 7.2 45 36 -6.9 19.6
14:20 1016 30 845 24.95 7.5 45.4 38 -6 21.1
14:25 1016 30 845 24.95 7.6 45.7 38 -5.8 21.6
14:30 1016 30 845 24.95 7.6 45.7 37 -6 21.2
14:35 1016 30 845 24.95 7.9 46.2 37 -5.9 21.3
14:40 1016 30 845 24.95 8.3 47 34 -6.4 20.4
14:45 1016 30 845 24.95 8.2 46.8 34 -6.5 20.3
14:50 1016 30 845 24.95 8.2 46.7 36 -5.9 21.5
14:55 1016 30 845 24.95 7.9 46.2 37 -5.8 21.6
15:00 1016 30 845 24.95 7.7 45.9 38 -5.6 21.9
15:05 1016 30 845 24.95 7.4 45.2 40 -5.3 22.4
15:10 1016 30 846 24.98 7.5 45.4 39 -5.7 21.7
15:15 1016 30 846 24.98 7.6 45.6 38 -5.9 21.4
15:20 1016 30 846 24.98 8 46.3 37 -6 21.3
15:25 1016 30 846 24.98 8.1 46.5 37 -5.9 21.4
15:30 1016 30 846 24.98 8.1 46.5 38 -5.2 22.6
15:35 1016 30 846 24.98 7.8 46 38 -5.7 21.7
15:40 1017 30.03 846 24.98 8.1 46.5 36 -6.1 21
15:45 1017 30.03 846 24.98 7.5 45.5 38 -5.9 21.3
15:50 1017 30.03 846 24.98 7.1 44.7 40 -5.8 21.6
15:55 1017 30.03 846 24.98 7.2 45 39 -5.9 21.4
16:00 1017 30.03 846 24.98 7.3 45.1 37 -6.3 20.7
16:05 1017 30.03 846 24.98 7.7 45.8 36 -6.6 20.1
16:10 1017 30.03 846 24.98 7.7 45.9 38 -5.7 21.7
16:15 1017 30.03 846 24.98 7.8 46 35 -6.6 20.2
16:20 1017 30.03 846 24.98 8 46.4 35 -6.4 20.5
16:25 1017 30.03 846 24.98 8 46.5 37 -5.8 21.5
16:30 1017 30.03 846 24.98 7.8 46 37 -5.9 21.4
16:35 1017 30.03 846 24.98 7.1 44.7 39 -5.9 21.4
16:40 1017 30.03 846 24.98 6.3 43.4 41 -6 21.1
16:45 1017 30.03 846 24.98 6.5 43.8 39 -6.3 20.6
16:50 1017 30.03 846 24.98 6.8 44.2 39 -6.3 20.7
16:55 1017 30.03 846 24.98 6.3 43.3 43 -5.5 22
17:00 1017 30.03 846 24.98 5.8 42.4 43 -5.9 21.4
17:05 1017 30.03 846 24.98 5.5 41.9 44 -5.6 21.9
17:10 1017 30.03 846 24.98 5.7 42.3 42 -6.1 21
17:15 1017 30.03 846 24.98 5.9 42.7 41 -6.4 20.5
17:20 1017 30.03 846 24.98 6 42.9 41 -6.2 20.9
17:25 1017 30.03 846 24.98 6.1 42.9 41 -6.2 20.9
17:30 1017 30.03 846 24.98 5.8 42.5 43 -5.7 21.7
17:35 1017 30.03 846 24.98 5.8 42.5 42 -6 21.3
17:40 1017 30.03 846 24.98 5.8 42.4 43 -5.8 21.6
17:45 1017 30.03 846 24.98 5.7 42.3 42 -6.3 20.6
17:50 1017 30.03 846 24.98 5.7 42.3 42 -6.3 20.7
17:55 1017 30.03 846 24.98 5.6 42.1 46 -5.2 22.7
18:00 1017 30.03 846 24.98 5.2 41.4 45 -5.8 21.5
18:05 1017 30.03 846 24.98 4.9 40.8 47 -5.5 22.1
18:10 1017 30.03 846 24.98 4.7 40.5 48 -5.4 22.3
18:15 1017 30.03 846 24.98 4.8 40.6 47 -5.5 22.2
18:20 1017 30.03 846 24.98 5 40.9 43 -6.5 20.4
18:25 1017 30.03 846 24.98 5.2 41.3 44 -6.2 20.9
18:30 1017 30.03 846 24.98 5.2 41.4 43 -6.4 20.5
18:35 1017 30.03 846 24.98 5.2 41.4 43 -6.2 20.8
18:40 1017 30.03 846 24.98 5.3 41.5 43 -6.3 20.6
18:45 1017 30.03 846 24.98 5.2 41.4 43 -6.5 20.3
18:50 1017 30.03 846 24.98 5.1 41.2 44 -6.1 21.1
18:55 1017 30.03 846 24.98 4.9 40.8 44 -6.2 20.8
19:00 1017 30.03 846 24.98 4.9 40.8 45 -6.2 20.9
19:05 1017 30.03 846 24.98 4.9 40.8 45 -6.2 20.8
19:10 1017 30.03 846 24.98 4.9 40.8 45 -6 21.1
19:15 1017 30.03 846 24.98 4.7 40.4 48 -5.5 22
19:20 1017 30.03 846 24.98 4.6 40.3 46 -6 21.2
19:25 1017 30.03 846 24.98 4.6 40.3 47 -5.8 21.6
19:30 1017 30.03 846 24.98 4.6 40.3 47 -5.8 21.6
19:35 1017 30.03 846 24.98 4.7 40.5 47 -5.6 21.8
19:40 1017 30.03 846 24.98 4.8 40.6 47 -5.7 21.7
19:45 1017 30.03 846 24.98 4.9 40.9 46 -5.7 21.7
19:50 1016 30 845 24.95 4.9 40.8 46 -5.6 21.9
19:55 1016 30 846 24.98 5 41 45 -6 21.2
20:00 1017 30.03 846 24.98 5.2 41.4 43 -6.4 20.5
20:05 1017 30.03 846 24.98 5.4 41.8 44 -5.9 21.3
20:10 1017 30.03 846 24.98 5.4 41.8 45 -5.6 21.9
20:15 1017 30.03 846 24.98 5.2 41.4 47 -5.3 22.5
20:20 1017 30.03 846 24.98 5.2 41.4 47 -5.3 22.5
20:25 1017 30.03 846 24.98 5.2 41.4 47 -5.1 22.9
20:30 1017 30.03 846 24.98 5.1 41.2 48 -5 23
20:35 1017 30.03 846 24.98 5.1 41.1 48 -4.9 23.2
20:40 1017 30.03 846 24.98 5 40.9 49 -4.8 23.4
20:45 1017 30.03 846 24.98 4.8 40.7 49 -4.9 23.2
20:50 1017 30.03 846 24.98 4.9 40.8 48 -5.3 22.5
20:55 1017 30.03 846 24.98 5 41 47 -5.4 22.2
21:00 1017 30.03 846 24.98 5.1 41.2 47 -5.3 22.5
21:05 1017 30.03 846 24.98 5.1 41.1 48 -5 23
21:10 1017 30.03 846 24.98 5 41 48 -5.1 22.9
21:15 1017 30.03 846 24.98 5 41.1 49 -4.9 23.3
21:20 1017 30.03 846 24.98 5 41 49 -4.7 23.5
21:25 1017 30.03 846 24.98 5 41 50 -4.6 23.7
21:30 1017 30.03 846 24.98 5 41 51 -4.3 24.2
21:35 1017 30.03 846 24.98 5.1 41.2 51 -4.3 24.2
21:40 1017 30.03 846 24.98 5.1 41.1 51 -4.2 24.5
21:45 1017 30.03 846 24.98 5.2 41.4 50 -4.4 24.1
21:50 1017 30.03 846 24.98 5.3 41.5 52 -3.7 25.4
21:55 1017 30.03 846 24.98 5.1 41.3 53 -3.7 25.3
22:00 1017 30.03 846 24.98 5 41.1 54 -3.6 25.6
22:05 1017 30.03 846 24.98 4.9 40.9 55 -3.4 25.8
22:10 1016 30 846 24.98 4.8 40.7 54 -3.7 25.3
22:15 1017 30.03 846 24.98 4.8 40.6 53 -4 24.8
22:20 1017 30.03 846 24.98 4.8 40.7 53 -4 24.8
22:25 1017 30.03 846 24.98 4.8 40.7 53 -3.9 24.9
22:30 1017 30.03 846 24.98 4.8 40.6 53 -3.9 25
22:35 1016 30 846 24.98 4.7 40.5 53 -4 24.9
22:40 1016 30 845 24.95 4.7 40.5 53 -4 24.8
22:45 1016 30 845 24.95 4.6 40.3 54 -3.8 25.2
22:50 1016 30 845 24.95 4.5 40.1 55 -3.7 25.3
22:55 1016 30 845 24.95 4.4 39.8 56 -3.6 25.4
23:00 1016 30 845 24.95 4.2 39.6 57 -3.5 25.6
23:05 1016 30 846 24.98 4.1 39.3 58 -3.4 25.8
23:10 1016 30 846 24.98 4 39.2 57 -3.7 25.3
23:15 1016 30 845 24.95 4.2 39.5 56 -3.8 25.2
23:20 1016 30 845 24.95 4.2 39.5 57 -3.5 25.8
23:25 1016 30 845 24.95 4.3 39.7 55 -4 24.7
23:30 1016 30 845 24.95 4.7 40.4 53 -4.1 24.6
23:35 1016 30 845 24.95 4.9 40.8 54 -3.7 25.4
23:40 1016 30 845 24.95 4.9 40.8 53 -3.9 24.9
23:45 1016 30 845 24.95 5.1 41.2 52 -4 24.8
23:50 1016 30 845 24.95 5.2 41.3 52 -3.9 25
23:55 1016 30 845 24.95 5.2 41.3 52 -3.9 24.9
24:00 1016 30 845 24.95 5.2 41.3 52 -3.8 25.1